Time;durP1;ratioP1;P1;durP2;ratioP2;P2;SDS_P1;SDS_P2;PMS_P1;PMS_P2;Temp;Humidity;BMP_temperature;BMP_pressure;BME280_temperature;BME280_humidity;BME280_pressure;Samples;Min_cycle;Max_cycle;Signal;HPM_P1;HPM_P2
2022/01/16 00:01:43;;;;;;;60.07;29.03;;;4.60;64.50;;;;;;5100804;28;20219;-76
2022/01/16 00:04:11;;;;;;;58.87;27.83;;;4.60;64.80;;;;;;5103252;28;20287;-75
2022/01/16 00:06:43;;;;;;;59.80;26.63;;;4.60;64.80;;;;;;5101218;28;20245;-76
2022/01/16 00:09:14;;;;;;;61.97;26.47;;;4.60;65.00;;;;;;5102752;28;20268;-76
2022/01/16 00:11:42;;;;;;;57.17;25.27;;;4.50;65.00;;;;;;5099804;28;20188;-76
2022/01/16 00:14:12;;;;;;;50.53;22.17;;;4.60;65.10;;;;;;5100787;28;20211;-76
2022/01/16 00:16:40;;;;;;;50.20;22.97;;;4.50;65.30;;;;;;5101910;27;20270;-75
2022/01/16 00:19:09;;;;;;;43.70;21.57;;;4.50;65.20;;;;;;5103720;28;20202;-75
2022/01/16 00:21:41;;;;;;;43.63;20.93;;;4.50;65.10;;;;;;5101934;28;20202;-75
2022/01/16 00:24:10;;;;;;;42.83;20.77;;;4.50;65.20;;;;;;5103387;28;20202;-75
2022/01/16 00:26:40;;;;;;;37.07;16.57;;;4.50;65.20;;;;;;5101759;28;20195;-75
2022/01/16 00:29:11;;;;;;;37.47;15.50;;;4.50;65.20;;;;;;5092952;28;20188;-76
2022/01/16 00:31:42;;;;;;;47.60;16.70;;;4.40;65.20;;;;;;5102504;28;20192;-76
2022/01/16 00:34:12;;;;;;;44.67;17.47;;;4.40;65.20;;;;;;5102952;28;20678;-75
2022/01/16 00:36:41;;;;;;;37.00;16.93;;;4.40;65.10;;;;;;5101505;28;20248;-75
2022/01/16 00:39:09;;;;;;;43.70;17.33;;;4.40;65.00;;;;;;5095512;27;20222;-76
2022/01/16 00:41:39;;;;;;;36.80;15.93;;;4.40;64.90;;;;;;5104084;28;20196;-76
2022/01/16 00:44:08;;;;;;;36.73;15.30;;;4.40;64.80;;;;;;5101799;27;20246;-76
2022/01/16 00:46:37;;;;;;;34.27;15.53;;;4.40;64.70;;;;;;5101037;27;20872;-76
2022/01/16 00:49:05;;;;;;;40.90;15.97;;;4.40;64.60;;;;;;5105342;28;20557;-75
2022/01/16 00:51:34;;;;;;;39.20;17.57;;;4.40;64.60;;;;;;5102344;28;20431;-75
2022/01/16 00:54:02;;;;;;;31.43;15.10;;;4.40;64.90;;;;;;5100320;28;20223;-75
2022/01/16 00:56:31;;;;;;;37.03;16.63;;;4.40;64.70;;;;;;5099825;28;20304;-76
2022/01/16 00:59:00;;;;;;;30.37;15.07;;;4.40;64.50;;;;;;5103845;28;20705;-75
2022/01/16 01:01:28;;;;;;;32.70;16.07;;;4.40;64.30;;;;;;5103263;28;20207;-76
2022/01/16 01:03:57;;;;;;;31.03;14.17;;;4.40;64.20;;;;;;5101548;28;20200;-75
2022/01/16 01:06:26;;;;;;;27.00;13.90;;;4.40;64.30;;;;;;5101674;28;20203;-76
2022/01/16 01:08:54;;;;;;;34.07;14.70;;;4.40;64.30;;;;;;5098667;28;20194;-75
2022/01/16 01:11:27;;;;;;;31.20;15.77;;;4.40;64.10;;;;;;5097464;28;20202;-76
2022/01/16 01:14:15;;;;;;;34.37;14.80;;;4.40;64.10;;;;;;5096689;28;20184;-76
2022/01/16 01:16:53;;;;;;;30.90;14.93;;;4.40;64.10;;;;;;5094717;28;20280;-76
2022/01/16 01:19:25;;;;;;;31.87;15.10;;;4.30;64.00;;;;;;5103091;28;20190;-75
2022/01/16 01:21:54;;;;;;;29.77;15.13;;;4.30;64.00;;;;;;5094664;28;20193;-76
2022/01/16 01:24:23;;;;;;;27.60;13.80;;;4.30;64.00;;;;;;5101454;28;20253;-75
2022/01/16 01:26:59;;;;;;;36.23;15.43;;;4.30;64.00;;;;;;5101005;28;20198;-75
2022/01/16 01:29:29;;;;;;;30.57;14.87;;;4.30;64.00;;;;;;5094990;28;20194;-75
2022/01/16 01:32:00;;;;;;;23.97;13.17;;;4.30;63.90;;;;;;5096485;28;20198;-76
2022/01/16 01:34:28;;;;;;;27.03;13.07;;;4.40;63.80;;;;;;5096932;28;20197;-76
2022/01/16 01:36:57;;;;;;;25.92;13.70;;;4.40;63.70;;;;;;5101058;28;20451;-75
2022/01/16 01:39:25;;;;;;;30.77;14.33;;;4.40;63.70;;;;;;5098287;28;20198;-75
2022/01/16 01:42:03;;;;;;;28.23;15.17;;;4.40;63.70;;;;;;5102551;28;20198;-75
2022/01/16 01:52:56;;;;;;;29.53;14.40;;;4.30;64.00;;;;;;5095852;28;20202;-75
2022/01/16 01:55:26;;;;;;;31.87;14.07;;;4.30;64.10;;;;;;5098884;28;20264;-76
2022/01/16 01:57:54;;;;;;;24.80;13.67;;;4.20;64.10;;;;;;5101316;28;20218;-76
2022/01/16 02:00:23;;;;;;;26.17;13.40;;;4.20;64.00;;;;;;5089098;28;20197;-75
2022/01/16 02:03:10;;;;;;;28.27;13.20;;;4.20;64.00;;;;;;5093229;28;20191;-76
2022/01/16 02:05:41;;;;;;;27.87;13.33;;;4.20;64.10;;;;;;5100393;28;20192;-75
2022/01/16 02:08:10;;;;;;;25.07;13.70;;;4.20;64.10;;;;;;5101539;28;20194;-75
2022/01/16 02:10:40;;;;;;;29.03;13.17;;;4.20;64.10;;;;;;5102170;28;20199;-75
2022/01/16 02:13:18;;;;;;;31.57;14.10;;;4.20;64.30;;;;;;5096615;28;20189;-75
2022/01/16 02:32:46;;;;;;;26.90;12.83;;;4.00;64.00;;;;;;5104400;28;20181;-76
2022/01/16 02:35:13;;;;;;;29.63;14.10;;;4.00;64.10;;;;;;5100186;28;20221;-75
2022/01/16 02:37:42;;;;;;;27.17;13.43;;;4.00;64.30;;;;;;5099809;28;20761;-75
2022/01/16 02:40:22;;;;;;;26.83;13.90;;;4.00;64.40;;;;;;5103315;28;20181;-75
2022/01/16 02:42:52;;;;;;;32.70;15.30;;;4.00;64.40;;;;;;5102485;28;20196;-75
2022/01/16 02:45:30;;;;;;;31.07;15.23;;;3.90;64.60;;;;;;5105127;28;20287;-75
2022/01/16 02:48:01;;;;;;;29.60;15.10;;;4.00;64.70;;;;;;5106400;28;20181;-75
2022/01/16 02:50:30;;;;;;;34.30;16.27;;;4.00;64.70;;;;;;5105197;28;20190;-75
2022/01/16 02:52:59;;;;;;;26.00;14.00;;;3.90;64.90;;;;;;5105382;28;20635;-75
2022/01/16 02:55:29;;;;;;;31.80;15.70;;;3.90;65.00;;;;;;5105677;28;20204;-75
2022/01/16 02:57:57;;;;;;;35.60;15.13;;;3.80;65.00;;;;;;5104238;28;20211;-75
2022/01/16 03:00:26;;;;;;;37.80;14.93;;;3.80;65.00;;;;;;5103870;27;20199;-75
2022/01/16 03:02:54;;;;;;;31.07;14.83;;;3.80;65.00;;;;;;5103654;28;20193;-75
2022/01/16 03:05:23;;;;;;;31.07;15.60;;;3.80;65.10;;;;;;5103605;27;20195;-75
2022/01/16 03:07:51;;;;;;;31.47;13.83;;;3.80;65.10;;;;;;5096305;27;20189;-76
2022/01/16 03:13:05;;;;;;;32.43;14.93;;;3.70;65.30;;;;;;5099094;28;20221;-75
2022/01/16 03:15:33;;;;;;;30.23;14.00;;;3.80;65.30;;;;;;5103355;28;20213;-75
2022/01/16 03:23:33;;;;;;;31.93;14.17;;;3.70;65.70;;;;;;5104962;28;20198;-75
2022/01/16 03:26:02;;;;;;;28.90;14.37;;;3.60;65.80;;;;;;5102715;27;20194;-75
2022/01/16 03:28:32;;;;;;;34.73;15.27;;;3.60;65.80;;;;;;5099978;28;20188;-75
2022/01/16 03:31:00;;;;;;;26.47;13.73;;;3.60;66.10;;;;;;5100258;28;20254;-75
2022/01/16 03:33:28;;;;;;;24.37;12.90;;;3.60;66.30;;;;;;5102714;28;20196;-75
2022/01/16 03:35:57;;;;;;;23.53;11.83;;;3.60;66.40;;;;;;5099581;28;20213;-76
2022/01/16 03:38:25;;;;;;;19.23;10.47;;;3.50;66.40;;;;;;5097676;28;20232;-75
2022/01/16 03:40:53;;;;;;;20.63;10.17;;;3.50;66.60;;;;;;5101681;28;20190;-74
2022/01/16 03:43:21;;;;;;;23.77;10.77;;;3.50;66.60;;;;;;5097735;28;20206;-75
2022/01/16 03:45:51;;;;;;;22.77;10.33;;;3.40;66.60;;;;;;5103865;28;20202;-74
2022/01/16 03:48:20;;;;;;;21.53;9.70;;;3.40;66.60;;;;;;5100683;28;20198;-74
2022/01/16 03:50:48;;;;;;;19.27;10.13;;;3.40;66.70;;;;;;5092647;28;20194;-74
2022/01/16 03:53:17;;;;;;;23.50;10.40;;;3.40;66.80;;;;;;5100188;28;20190;-74
2022/01/16 03:55:45;;;;;;;27.03;11.83;;;3.40;66.80;;;;;;5096799;27;20191;-75
2022/01/16 03:58:13;;;;;;;21.67;10.50;;;3.40;66.80;;;;;;5102075;28;20216;-75
2022/01/16 04:00:42;;;;;;;23.27;11.33;;;3.30;66.80;;;;;;5100877;28;20197;-75
2022/01/16 04:03:12;;;;;;;29.93;11.23;;;3.30;66.80;;;;;;5101612;28;20193;-75
2022/01/16 04:05:40;;;;;;;22.80;11.17;;;3.30;66.80;;;;;;5097639;28;20255;-75
2022/01/16 04:08:08;;;;;;;25.37;11.20;;;3.30;67.00;;;;;;5100215;28;20197;-75
2022/01/16 04:10:37;;;;;;;23.23;10.70;;;3.30;66.90;;;;;;5103411;28;20190;-74
2022/01/16 04:13:05;;;;;;;20.10;10.93;;;3.30;66.90;;;;;;5101924;28;20202;-74
2022/01/16 04:15:34;;;;;;;24.77;11.27;;;3.20;67.00;;;;;;5099265;27;20190;-75
2022/01/16 04:18:06;;;;;;;25.60;10.03;;;3.20;67.00;;;;;;5104407;28;20205;-74
2022/01/16 04:20:36;;;;;;;23.97;11.47;;;3.20;67.20;;;;;;5100897;28;20286;-75
2022/01/16 04:23:06;;;;;;;20.47;10.97;;;3.20;67.30;;;;;;5103862;28;20236;-75
2022/01/16 04:25:35;;;;;;;21.50;9.70;;;3.10;67.30;;;;;;5102395;28;20194;-75
2022/01/16 04:28:03;;;;;;;21.20;10.23;;;3.10;67.40;;;;;;5102533;28;20193;-74
2022/01/16 04:30:32;;;;;;;20.73;10.00;;;3.10;67.50;;;;;;5100147;28;20280;-75
2022/01/16 04:33:01;;;;;;;21.53;10.47;;;3.10;67.60;;;;;;5100118;28;20197;-76
2022/01/16 04:35:29;;;;;;;21.33;10.30;;;3.10;67.70;;;;;;5100274;28;20273;-75
2022/01/16 04:37:59;;;;;;;23.97;11.17;;;3.10;67.90;;;;;;5095765;28;20198;-75
2022/01/16 04:40:41;;;;;;;26.23;11.10;;;3.10;68.10;;;;;;5098822;28;20192;-75
2022/01/16 04:45:59;;;;;;;23.13;10.33;;;3.10;68.60;;;;;;5102247;28;20290;-75
2022/01/16 04:48:27;;;;;;;23.00;9.10;;;3.10;68.90;;;;;;5103054;28;20197;-75
2022/01/16 04:50:56;;;;;;;21.70;9.97;;;3.10;69.10;;;;;;5104260;28;20197;-74
2022/01/16 04:53:25;;;;;;;22.63;10.13;;;3.10;69.30;;;;;;5102005;28;20742;-75
2022/01/16 04:55:54;;;;;;;20.10;9.80;;;3.10;69.50;;;;;;5097845;28;20194;-75
2022/01/16 04:58:22;;;;;;;24.43;11.10;;;3.10;69.70;;;;;;5090848;28;20185;-75
2022/01/16 05:00:55;;;;;;;20.33;9.70;;;3.10;70.70;;;;;;5094431;28;20189;-75
2022/01/16 05:03:25;;;;;;;20.63;9.23;;;3.10;70.10;;;;;;5107370;28;20189;-75
2022/01/16 05:05:53;;;;;;;27.77;9.93;;;3.10;70.20;;;;;;5103217;28;20193;-74
2022/01/16 05:08:22;;;;;;;21.80;9.43;;;3.00;70.30;;;;;;5095018;28;20613;-75
2022/01/16 05:10:55;;;;;;;20.23;9.60;;;3.00;70.50;;;;;;5100439;27;20193;-75
2022/01/16 05:16:33;;;;;;;21.00;10.40;;;3.00;70.50;;;;;;5091641;28;20666;-75
2022/01/16 05:16:35;;;;;;;22.07;10.27;;;3.00;70.60;;;;;;5095187;28;20195;-75
2022/01/16 05:19:05;;;;;;;24.57;9.97;;;3.00;70.70;;;;;;5099501;28;20217;-75
2022/01/16 05:21:34;;;;;;;21.13;10.20;;;3.00;71.10;;;;;;5099580;28;20833;-75
2022/01/16 05:24:07;;;;;;;19.10;9.30;;;3.00;71.00;;;;;;5102387;28;20197;-75
2022/01/16 05:26:38;;;;;;;22.97;9.93;;;3.00;71.20;;;;;;5102175;28;20182;-74
2022/01/16 05:29:06;;;;;;;20.50;10.30;;;3.00;71.40;;;;;;5101028;27;20244;-74
2022/01/16 05:31:35;;;;;;;23.40;10.50;;;3.00;71.60;;;;;;5100569;28;20899;-75
2022/01/16 05:34:03;;;;;;;25.70;10.00;;;3.00;71.50;;;;;;5089972;28;20193;-74
2022/01/16 05:36:32;;;;;;;26.33;11.53;;;3.00;71.80;;;;;;5101305;28;20756;-75
2022/01/16 05:39:00;;;;;;;24.13;10.53;;;2.90;71.90;;;;;;5096440;28;20702;-75
2022/01/16 05:41:28;;;;;;;22.63;11.47;;;2.90;72.10;;;;;;5099449;28;20647;-74
2022/01/16 05:43:58;;;;;;;21.97;10.97;;;2.90;72.40;;;;;;5101666;28;20201;-74
2022/01/16 05:46:26;;;;;;;22.90;12.07;;;2.90;72.90;;;;;;5098122;28;20265;-74
2022/01/16 05:48:55;;;;;;;23.80;11.13;;;2.80;72.70;;;;;;5102712;28;20197;-74
2022/01/16 05:51:23;;;;;;;23.00;12.13;;;2.80;72.50;;;;;;5100477;28;20258;-74
2022/01/16 05:53:51;;;;;;;23.90;10.83;;;2.80;72.70;;;;;;5102428;28;20197;-74
2022/01/16 05:56:20;;;;;;;23.30;11.40;;;2.80;72.60;;;;;;5098803;28;20435;-74
2022/01/16 05:58:48;;;;;;;26.30;12.23;;;2.80;72.70;;;;;;5101896;28;22261;-74
2022/01/16 06:01:18;;;;;;;24.10;12.60;;;2.80;72.80;;;;;;5100663;28;20193;-74
2022/01/16 06:03:46;;;;;;;20.17;10.93;;;2.80;72.80;;;;;;5099338;28;20206;-74
2022/01/16 06:06:15;;;;;;;26.08;13.63;;;2.80;72.90;;;;;;5097275;28;20906;-74
2022/01/16 06:08:43;;;;;;;26.60;12.67;;;2.80;73.10;;;;;;5102131;28;20901;-74
2022/01/16 06:11:11;;;;;;;25.20;12.53;;;2.90;73.30;;;;;;5102316;28;20227;-74
2022/01/16 06:13:40;;;;;;;31.37;14.90;;;2.90;73.50;;;;;;5101296;28;20587;-74
2022/01/16 06:16:08;;;;;;;23.43;12.53;;;2.80;73.60;;;;;;5098976;28;20248;-74
2022/01/16 06:18:38;;;;;;;23.37;12.37;;;2.90;73.90;;;;;;5100105;28;20238;-74
2022/01/16 06:21:06;;;;;;;24.93;12.63;;;2.80;74.00;;;;;;5100655;28;20274;-74
2022/01/16 06:23:34;;;;;;;25.97;12.60;;;2.80;74.10;;;;;;5099746;28;20186;-73
2022/01/16 06:26:02;;;;;;;21.97;11.17;;;2.90;74.20;;;;;;5093825;28;20190;-73
2022/01/16 06:28:31;;;;;;;30.40;13.02;;;2.90;74.30;;;;;;5099433;28;21050;-73
2022/01/16 06:31:05;;;;;;;23.57;11.73;;;2.90;74.50;;;;;;5098188;28;20994;-73
2022/01/16 06:33:34;;;;;;;26.57;12.27;;;2.90;75.20;;;;;;5103329;28;20185;-73
2022/01/16 06:36:05;;;;;;;26.07;12.97;;;2.90;75.20;;;;;;5102503;28;20303;-73
2022/01/16 06:38:34;;;;;;;29.23;13.27;;;2.90;75.70;;;;;;5101626;28;20189;-74
2022/01/16 06:41:03;;;;;;;30.37;13.70;;;2.90;75.70;;;;;;5099588;28;20222;-74
2022/01/16 06:43:31;;;;;;;28.50;12.67;;;2.90;75.70;;;;;;5097966;28;20185;-74
2022/01/16 06:45:59;;;;;;;25.20;12.97;;;2.90;75.60;;;;;;5102661;28;20602;-75
2022/01/16 06:48:28;;;;;;;31.10;13.07;;;2.90;75.80;;;;;;5099369;28;20188;-74
2022/01/16 06:50:56;;;;;;;28.17;13.13;;;2.90;75.80;;;;;;5099812;28;20186;-74
2022/01/16 06:53:26;;;;;;;26.87;12.63;;;3.00;75.80;;;;;;5099621;28;20243;-74
2022/01/16 06:55:54;;;;;;;25.17;13.17;;;3.00;75.70;;;;;;5098948;28;20965;-75
2022/01/16 06:58:22;;;;;;;32.50;11.53;;;3.00;75.80;;;;;;5101026;28;20200;-74
2022/01/16 07:00:51;;;;;;;25.97;12.83;;;3.10;76.00;;;;;;5101777;28;20218;-74
2022/01/16 07:03:19;;;;;;;29.98;14.63;;;3.20;76.20;;;;;;5103032;28;20793;-75
2022/01/16 07:05:47;;;;;;;29.50;13.70;;;3.20;76.60;;;;;;5106709;28;20199;-75
2022/01/16 07:08:16;;;;;;;28.37;13.20;;;3.30;77.00;;;;;;5101049;28;20663;-75
2022/01/16 07:10:45;;;;;;;28.10;12.83;;;3.30;77.00;;;;;;5103992;28;20203;-75
2022/01/16 07:13:14;;;;;;;29.93;12.20;;;3.30;76.90;;;;;;5101444;28;20283;-75
2022/01/16 07:15:42;;;;;;;30.38;15.38;;;3.40;77.00;;;;;;5100695;28;20786;-75
2022/01/16 07:18:11;;;;;;;31.77;15.97;;;3.40;77.30;;;;;;5104286;28;20196;-75
2022/01/16 07:20:39;;;;;;;27.87;13.23;;;3.40;77.60;;;;;;5101839;28;20220;-75
2022/01/16 07:23:07;;;;;;;28.33;14.40;;;3.50;77.90;;;;;;5104383;28;20276;-75
2022/01/16 07:25:36;;;;;;;31.63;13.83;;;3.50;77.90;;;;;;5105111;28;20199;-75
2022/01/16 07:28:06;;;;;;;25.27;12.90;;;3.50;78.20;;;;;;5105607;28;20282;-76
2022/01/16 07:30:36;;;;;;;25.50;12.53;;;3.60;78.00;;;;;;5095852;28;20177;-76
2022/01/16 07:33:04;;;;;;;30.93;13.57;;;3.70;77.90;;;;;;5104910;28;20232;-75
2022/01/16 07:35:33;;;;;;;28.73;12.43;;;3.70;78.10;;;;;;5098882;28;20667;-76
2022/01/16 07:38:07;;;;;;;27.17;13.00;;;3.80;78.10;;;;;;5105393;28;20641;-77
2022/01/16 07:40:37;;;;;;;33.67;14.83;;;3.80;78.00;;;;;;5106352;28;20215;-75
2022/01/16 07:43:07;;;;;;;31.83;14.30;;;3.90;78.40;;;;;;5104205;28;20184;-77
2022/01/16 07:45:37;;;;;;;28.97;13.43;;;3.90;78.60;;;;;;5097220;28;20191;-77
2022/01/16 07:48:07;;;;;;;27.67;13.80;;;3.90;78.70;;;;;;5097533;28;20183;-76
2022/01/16 07:50:36;;;;;;;29.67;13.80;;;4.00;78.90;;;;;;5098037;28;20195;-76
2022/01/16 07:53:05;;;;;;;28.13;14.33;;;4.00;78.70;;;;;;5104778;28;20196;-76
2022/01/16 07:55:33;;;;;;;30.23;14.43;;;4.10;78.60;;;;;;5096557;28;20203;-76
2022/01/16 07:58:02;;;;;;;33.40;13.70;;;4.10;79.00;;;;;;5104420;28;20262;-76
2022/01/16 08:00:34;;;;;;;30.87;14.07;;;4.20;79.10;;;;;;5105169;28;20224;-76
2022/01/16 08:03:03;;;;;;;27.97;13.43;;;4.20;79.00;;;;;;5104895;28;20200;-76
2022/01/16 08:05:34;;;;;;;26.40;13.80;;;4.30;78.70;;;;;;5105398;28;20200;-77
2022/01/16 08:08:03;;;;;;;30.33;14.33;;;4.40;78.80;;;;;;5097487;28;20234;-76
2022/01/16 08:10:31;;;;;;;28.73;13.33;;;4.50;78.90;;;;;;5103066;28;20185;-76
2022/01/16 08:13:00;;;;;;;23.10;12.60;;;4.60;79.10;;;;;;5104772;28;20225;-76
2022/01/16 08:15:28;;;;;;;32.20;13.57;;;4.60;79.20;;;;;;5101342;28;20196;-74
2022/01/16 08:17:58;;;;;;;25.97;13.33;;;4.70;79.30;;;;;;5099309;28;20196;-76
2022/01/16 08:20:27;;;;;;;27.80;15.05;;;4.70;79.10;;;;;;5095208;28;20436;-75
2022/01/16 08:22:56;;;;;;;29.90;13.57;;;4.80;79.20;;;;;;5103132;28;20196;-75
2022/01/16 08:25:25;;;;;;;24.43;12.07;;;4.80;79.20;;;;;;5093909;28;20219;-76
2022/01/16 08:27:53;;;;;;;25.83;12.30;;;4.90;79.20;;;;;;5097015;28;20217;-75
2022/01/16 08:30:22;;;;;;;28.00;13.00;;;4.90;78.80;;;;;;5095265;28;20189;-75
2022/01/16 08:32:51;;;;;;;29.20;13.40;;;5.00;78.80;;;;;;5103159;28;20189;-75
2022/01/16 08:35:22;;;;;;;28.30;12.43;;;5.10;78.80;;;;;;5103872;28;20221;-75
2022/01/16 08:37:50;;;;;;;26.13;13.33;;;5.10;78.50;;;;;;5095741;28;20185;-75
2022/01/16 08:40:19;;;;;;;26.50;12.10;;;5.20;78.50;;;;;;5100718;28;20185;-75
2022/01/16 08:42:47;;;;;;;28.73;13.00;;;5.20;78.40;;;;;;5101456;28;20198;-74
2022/01/16 08:45:15;;;;;;;29.27;13.93;;;5.30;79.20;;;;;;5099020;28;20259;-76
2022/01/16 08:47:45;;;;;;;29.30;13.47;;;5.40;78.20;;;;;;5100902;28;20196;-74
2022/01/16 08:50:15;;;;;;;23.67;11.37;;;5.40;78.00;;;;;;5101732;28;20193;-75
2022/01/16 08:52:45;;;;;;;25.57;12.90;;;5.50;78.10;;;;;;5102468;28;20180;-74
2022/01/16 08:55:13;;;;;;;27.20;12.98;;;5.60;78.00;;;;;;5104194;28;20478;-74
2022/01/16 08:57:42;;;;;;;29.97;12.77;;;5.70;78.00;;;;;;5095632;28;20200;-75
2022/01/16 09:00:11;;;;;;;23.17;11.17;;;5.80;78.10;;;;;;5103446;28;20222;-75
2022/01/16 09:02:40;;;;;;;22.03;11.60;;;5.80;77.80;;;;;;5101597;28;20193;-76
2022/01/16 09:05:09;;;;;;;20.30;10.83;;;5.90;77.40;;;;;;5101339;28;20308;-75
2022/01/16 09:07:38;;;;;;;27.30;13.18;;;6.00;77.20;;;;;;5099602;28;20433;-76
2022/01/16 09:10:09;;;;;;;24.67;11.83;;;6.10;77.40;;;;;;5095521;28;20190;-76
2022/01/16 09:12:37;;;;;;;26.53;12.27;;;6.20;77.20;;;;;;5101084;28;20195;-75
2022/01/16 09:15:08;;;;;;;24.47;11.83;;;6.30;76.90;;;;;;5102310;28;20187;-76
2022/01/16 09:17:36;;;;;;;23.67;12.33;;;6.30;76.60;;;;;;5097854;28;20185;-74
2022/01/16 09:20:06;;;;;;;25.40;12.17;;;6.40;76.30;;;;;;5101032;28;20200;-75
2022/01/16 09:22:36;;;;;;;24.57;12.37;;;6.50;76.00;;;;;;5102067;28;20206;-76
2022/01/16 09:25:08;;;;;;;23.63;12.03;;;6.50;75.80;;;;;;5101638;28;20194;-75
2022/01/16 09:27:36;;;;;;;24.43;12.23;;;6.60;75.70;;;;;;5102964;28;20188;-74
2022/01/16 09:30:07;;;;;;;22.77;11.53;;;6.60;75.50;;;;;;5101955;28;20190;-75
2022/01/16 09:32:36;;;;;;;23.27;12.07;;;6.70;75.20;;;;;;5100819;28;20183;-72
2022/01/16 09:35:06;;;;;;;25.17;10.87;;;6.70;75.00;;;;;;5100246;28;20235;-75
2022/01/16 09:37:35;;;;;;;21.03;11.33;;;6.80;75.00;;;;;;5102709;28;20179;-77
2022/01/16 09:40:04;;;;;;;23.97;12.03;;;6.80;74.50;;;;;;5093528;28;20194;-77
2022/01/16 09:42:35;;;;;;;19.67;10.93;;;6.80;74.40;;;;;;5101125;28;20220;-75
2022/01/16 09:45:06;;;;;;;25.97;11.43;;;6.90;74.10;;;;;;5103141;28;20181;-74
2022/01/16 09:47:39;;;;;;;26.27;11.17;;;6.90;73.90;;;;;;5101456;28;20226;-75
2022/01/16 09:50:09;;;;;;;20.37;10.63;;;6.90;73.50;;;;;;5097570;28;20243;-75
2022/01/16 09:52:38;;;;;;;22.77;11.10;;;6.90;73.40;;;;;;5103547;28;20183;-75
2022/01/16 09:55:08;;;;;;;24.67;11.50;;;7.00;73.60;;;;;;5104969;28;20209;-74
2022/01/16 09:57:39;;;;;;;21.40;10.83;;;7.10;73.80;;;;;;5105499;28;20796;-74
2022/01/16 10:00:15;;;;;;;22.40;10.50;;;7.10;73.60;;;;;;5100475;28;20248;-76
2022/01/16 10:02:43;;;;;;;22.97;11.90;;;7.10;73.20;;;;;;5103658;28;20301;-74
2022/01/16 10:05:26;;;;;;;25.80;12.47;;;7.20;72.60;;;;;;5101515;28;20594;-75
2022/01/16 10:07:55;;;;;;;26.47;12.33;;;7.20;72.60;;;;;;5103859;28;20187;-74
2022/01/16 10:10:27;;;;;;;22.37;11.20;;;7.20;72.60;;;;;;5099269;28;20198;-74
2022/01/16 10:13:04;;;;;;;23.47;12.10;;;7.30;72.80;;;;;;5091945;28;20246;-73
2022/01/16 10:15:33;;;;;;;23.73;12.03;;;7.30;73.00;;;;;;5097381;28;20621;-74
2022/01/16 10:18:05;;;;;;;20.17;11.53;;;7.30;72.40;;;;;;5104330;28;20195;-73
2022/01/16 10:20:44;;;;;;;21.50;11.07;;;7.40;72.30;;;;;;5103287;28;20196;-74
2022/01/16 10:23:21;;;;;;;25.37;11.70;;;7.40;72.00;;;;;;5103233;28;20215;-75
2022/01/16 10:25:50;;;;;;;21.87;11.63;;;7.40;72.20;;;;;;5093475;28;20223;-75
2022/01/16 10:28:22;;;;;;;21.23;9.83;;;7.50;72.40;;;;;;5100493;28;20215;-75
2022/01/16 10:30:51;;;;;;;20.67;11.00;;;7.50;71.20;;;;;;5101671;28;20907;-74
2022/01/16 10:33:22;;;;;;;21.23;11.17;;;7.50;70.80;;;;;;5099389;28;20294;-74
2022/01/16 10:35:52;;;;;;;20.50;10.90;;;7.50;71.20;;;;;;5099418;28;20769;-74
2022/01/16 10:38:22;;;;;;;24.10;11.57;;;7.60;71.50;;;;;;5103037;28;20198;-74
2022/01/16 10:40:53;;;;;;;22.93;11.43;;;7.60;71.40;;;;;;5102447;28;20188;-74
2022/01/16 10:43:38;;;;;;;20.77;10.40;;;7.60;72.20;;;;;;5103278;28;20777;-74
2022/01/16 10:46:08;;;;;;;20.63;10.87;;;7.60;71.50;;;;;;5104376;28;20200;-74
2022/01/16 10:49:13;;;;;;;25.77;12.57;;;7.70;71.10;;;;;;5104610;28;20192;-73
2022/01/16 10:51:42;;;;;;;21.77;10.87;;;7.80;71.50;;;;;;5106331;28;20189;-73
2022/01/16 10:54:29;;;;;;;23.13;11.13;;;7.80;71.20;;;;;;5106430;28;20245;-73
2022/01/16 10:56:58;;;;;;;22.77;10.50;;;7.90;71.10;;;;;;5098723;28;20220;-73
2022/01/16 10:59:27;;;;;;;21.50;10.77;;;7.90;70.60;;;;;;5100625;28;20204;-74
2022/01/16 11:02:08;;;;;;;19.70;10.97;;;7.90;69.90;;;;;;5103585;28;20222;-73
2022/01/16 11:04:37;;;;;;;21.10;10.47;;;8.00;70.20;;;;;;5105885;28;20184;-74
2022/01/16 11:07:06;;;;;;;22.00;10.27;;;8.00;69.90;;;;;;5104447;28;20534;-73
2022/01/16 11:09:34;;;;;;;21.43;11.50;;;8.00;69.70;;;;;;5103863;28;20271;-73
2022/01/16 11:12:03;;;;;;;22.80;11.90;;;8.10;69.90;;;;;;5100680;28;20200;-74
2022/01/16 11:14:32;;;;;;;25.00;12.00;;;8.10;69.70;;;;;;5103730;28;20196;-74
2022/01/16 11:17:00;;;;;;;22.03;11.63;;;8.10;69.40;;;;;;5098648;28;20197;-75
2022/01/16 11:19:35;;;;;;;25.37;11.30;;;8.20;69.70;;;;;;5100245;28;20195;-74
2022/01/16 11:22:09;;;;;;;21.23;10.60;;;8.20;69.30;;;;;;5101182;28;20242;-74
2022/01/16 11:24:48;;;;;;;23.43;10.60;;;8.30;68.40;;;;;;5097949;28;20205;-75
2022/01/16 11:27:17;;;;;;;24.83;10.70;;;8.30;68.20;;;;;;5099269;28;20181;-74
2022/01/16 11:29:48;;;;;;;24.73;10.77;;;8.30;68.30;;;;;;5098937;28;20185;-74
2022/01/16 11:32:16;;;;;;;21.33;10.10;;;8.30;68.30;;;;;;5102707;28;20591;-75
2022/01/16 11:34:45;;;;;;;16.83;9.40;;;8.40;67.90;;;;;;5103919;28;20232;-74
2022/01/16 11:37:14;;;;;;;22.03;9.60;;;8.40;67.50;;;;;;5102341;28;20203;-76
2022/01/16 11:39:42;;;;;;;19.57;9.70;;;8.40;67.60;;;;;;5104435;28;20198;-75
2022/01/16 11:42:20;;;;;;;19.23;10.00;;;8.40;66.70;;;;;;5102138;28;20221;-75
2022/01/16 11:44:54;;;;;;;21.63;10.20;;;8.50;66.90;;;;;;5097494;28;20197;-75
2022/01/16 11:47:22;;;;;;;23.50;10.90;;;8.50;66.90;;;;;;5106262;28;20686;-75
2022/01/16 11:49:51;;;;;;;24.20;11.17;;;8.50;66.90;;;;;;5103755;28;20216;-74
2022/01/16 11:52:21;;;;;;;21.20;10.90;;;8.60;66.40;;;;;;5100931;28;20550;-74
2022/01/16 11:54:50;;;;;;;22.43;10.83;;;8.60;66.40;;;;;;5105540;28;20181;-74
2022/01/16 11:57:21;;;;;;;18.83;9.00;;;8.70;66.40;;;;;;5105908;28;20192;-75
2022/01/16 11:59:53;;;;;;;17.17;8.63;;;8.70;65.50;;;;;;5096383;28;20182;-75
2022/01/16 12:02:27;;;;;;;19.87;9.33;;;8.70;64.40;;;;;;5104456;28;20725;-75
2022/01/16 12:05:00;;;;;;;16.63;8.17;;;8.80;65.00;;;;;;5106101;28;20181;-75
2022/01/16 12:07:49;;;;;;;16.93;9.13;;;8.80;64.60;;;;;;5102116;28;20238;-75
2022/01/16 12:10:41;;;;;;;20.80;9.87;;;8.80;64.70;;;;;;5091911;28;20566;-75
2022/01/16 12:13:57;;;;;;;17.60;8.80;;;8.90;65.00;;;;;;5096191;28;20178;-75
2022/01/16 12:16:43;;;;;;;20.07;9.27;;;9.00;65.20;;;;;;5097567;28;20214;-75
2022/01/16 12:19:41;;;;;;;16.13;9.10;;;9.00;65.10;;;;;;5099796;28;20235;-75
2022/01/16 12:22:14;;;;;;;18.23;9.93;;;9.00;63.80;;;;;;5101126;28;20185;-75
2022/01/16 12:24:44;;;;;;;21.07;10.60;;;9.00;63.40;;;;;;5102940;28;20646;-74
2022/01/16 12:27:27;;;;;;;19.60;9.80;;;9.10;63.30;;;;;;5100603;28;20638;-75
2022/01/16 12:30:37;;;;;;;20.37;10.63;;;9.10;63.60;;;;;;5103731;28;20200;-75
2022/01/16 12:33:11;;;;;;;23.07;10.70;;;9.20;63.80;;;;;;5012438;28;20192;-74
2022/01/16 12:36:15;;;;;;;22.27;10.67;;;9.30;63.70;;;;;;5090901;28;20213;-74
2022/01/16 12:39:06;;;;;;;24.30;10.57;;;9.30;63.70;;;;;;5100261;28;20184;-75
2022/01/16 12:41:41;;;;;;;22.13;11.03;;;9.30;63.10;;;;;;5102227;28;20291;-76
2022/01/16 12:44:12;;;;;;;22.43;10.87;;;9.30;63.30;;;;;;5094316;28;20204;-75
2022/01/16 12:46:42;;;;;;;24.53;10.40;;;9.40;63.40;;;;;;5102438;28;20822;-75
2022/01/16 12:49:13;;;;;;;20.00;10.83;;;9.40;62.80;;;;;;5101866;28;20177;-76
2022/01/16 12:51:46;;;;;;;20.27;11.03;;;9.40;63.10;;;;;;5102845;28;20262;-75
2022/01/16 12:54:16;;;;;;;20.47;10.27;;;9.40;63.10;;;;;;5102193;28;20309;-75
2022/01/16 12:56:46;;;;;;;19.73;9.87;;;9.50;63.20;;;;;;5101882;28;20196;-76
2022/01/16 12:59:37;;;;;;;19.83;9.00;;;9.40;62.70;;;;;;5102074;28;20190;-75
2022/01/16 13:02:08;;;;;;;15.70;8.23;;;9.50;62.50;;;;;;5098596;28;20185;-74
2022/01/16 13:04:39;;;;;;;17.87;7.90;;;9.60;62.10;;;;;;5091009;28;20300;-75
2022/01/16 13:07:28;;;;;;;16.40;7.87;;;9.60;61.80;;;;;;5096090;28;20241;-74
2022/01/16 13:09:57;;;;;;;14.67;7.33;;;9.70;62.70;;;;;;5103714;28;20200;-75
2022/01/16 13:12:26;;;;;;;18.83;7.50;;;9.80;61.20;;;;;;5093621;28;20842;-75
2022/01/16 13:15:00;;;;;;;13.77;6.83;;;9.90;60.50;;;;;;5100102;28;20196;-75
2022/01/16 13:17:32;;;;;;;14.83;7.00;;;10.10;58.60;;;;;;5093309;28;20259;-74
2022/01/16 13:20:02;;;;;;;21.03;6.60;;;10.30;58.10;;;;;;5102549;28;20604;-75
2022/01/16 13:22:37;;;;;;;15.53;7.40;;;10.60;57.70;;;;;;5098193;28;20632;-74
2022/01/16 13:25:08;;;;;;;14.43;7.83;;;11.00;58.60;;;;;;5099892;28;20185;-77
2022/01/16 13:27:38;;;;;;;12.80;6.87;;;11.30;57.90;;;;;;5099726;28;20639;-75
2022/01/16 13:30:11;;;;;;;14.87;7.10;;;11.70;57.20;;;;;;5100854;28;20193;-74
2022/01/16 13:32:42;;;;;;;14.83;8.23;;;12.30;57.50;;;;;;5092945;28;20438;-74
2022/01/16 13:35:20;;;;;;;20.27;8.03;;;13.20;54.80;;;;;;5093508;28;20477;-75